createdAt,value
2022-12-12T00:01:13.024Z,15.40
2022-12-12T00:03:40.431Z,14.95
2022-12-12T00:06:07.972Z,15.38
2022-12-12T00:08:35.264Z,14.55
2022-12-12T00:11:02.585Z,15.43
2022-12-12T00:13:29.920Z,14.25
2022-12-12T00:15:57.301Z,14.63
2022-12-12T00:18:24.656Z,14.90
2022-12-12T00:20:55.793Z,14.75
2022-12-12T00:23:26.294Z,15.00
2022-12-12T00:25:59.737Z,16.25
2022-12-12T00:28:27.392Z,11.95
2022-12-12T00:30:55.038Z,16.00
2022-12-12T00:33:22.358Z,15.30
2022-12-12T00:35:51.185Z,15.73
2022-12-12T00:38:19.478Z,16.15
2022-12-12T00:40:46.910Z,15.05
2022-12-12T00:43:14.322Z,15.02
2022-12-12T00:45:41.674Z,15.13
2022-12-12T00:48:09.549Z,14.27
2022-12-12T00:50:36.905Z,15.10
2022-12-12T00:53:04.252Z,15.40
2022-12-12T00:55:31.543Z,15.15
2022-12-12T00:57:58.983Z,15.85
2022-12-12T01:00:26.444Z,15.82
2022-12-12T01:02:56.615Z,15.50
2022-12-12T01:05:24.811Z,15.68
2022-12-12T01:07:52.365Z,15.30
2022-12-12T01:10:19.883Z,15.82
2022-12-12T01:12:47.189Z,15.82
2022-12-12T01:15:14.985Z,16.92
2022-12-12T01:17:42.511Z,16.58
2022-12-12T01:20:21.248Z,16.75
2022-12-12T01:22:48.557Z,16.67
2022-12-12T01:25:16.173Z,16.45
2022-12-12T01:27:43.516Z,16.27
2022-12-12T01:30:12.606Z,16.67
2022-12-12T01:32:39.990Z,16.42
2022-12-12T01:35:08.393Z,16.35
2022-12-12T01:37:36.068Z,16.05
2022-12-12T01:40:05.440Z,16.30
2022-12-12T01:42:32.775Z,16.50
2022-12-12T01:45:01.703Z,15.57
2022-12-12T01:47:29.032Z,15.85
2022-12-12T01:50:06.041Z,16.58
2022-12-12T01:52:39.529Z,15.80
2022-12-12T01:55:07.562Z,15.70
2022-12-12T01:57:37.998Z,16.13
2022-12-12T02:00:07.809Z,16.58
2022-12-12T02:02:35.155Z,15.85
2022-12-12T02:05:05.278Z,15.98
2022-12-12T02:07:32.590Z,15.00
2022-12-12T02:09:59.868Z,15.52
2022-12-12T02:12:27.176Z,16.10
2022-12-12T02:14:54.462Z,16.70
2022-12-12T02:17:37.762Z,15.30
2022-12-12T02:20:17.036Z,15.38
2022-12-12T02:22:59.385Z,16.00
2022-12-12T02:25:45.478Z,14.85
2022-12-12T02:28:28.012Z,15.00
2022-12-12T02:31:13.154Z,15.02
2022-12-12T02:34:22.479Z,15.95
2022-12-12T02:36:55.461Z,14.70
2022-12-12T02:39:28.363Z,15.03
2022-12-12T02:42:20.189Z,16.27
2022-12-12T02:44:56.909Z,14.77
2022-12-12T02:47:36.617Z,14.45
2022-12-12T02:50:09.794Z,14.63
2022-12-12T02:52:37.125Z,15.50
2022-12-12T02:55:06.364Z,15.05
2022-12-12T02:57:33.658Z,14.20
2022-12-12T03:00:10.187Z,13.63
2022-12-12T03:02:37.508Z,15.25
2022-12-12T03:05:35.938Z,15.02
2022-12-12T03:08:38.855Z,15.00
2022-12-12T03:11:19.911Z,15.23
2022-12-12T03:13:57.047Z,14.68
2022-12-12T03:16:32.716Z,15.52
2022-12-12T03:19:31.421Z,21.75
2022-12-12T03:22:12.098Z,14.52
2022-12-12T03:24:42.353Z,16.33
2022-12-12T03:27:12.322Z,14.02
2022-12-12T03:29:42.388Z,15.25
2022-12-12T03:32:13.842Z,14.07
2022-12-12T03:34:49.844Z,15.00
2022-12-12T03:37:20.646Z,13.82
2022-12-12T03:40:13.657Z,14.35
2022-12-12T03:42:51.273Z,15.38
2022-12-12T03:45:48.319Z,14.55
2022-12-12T03:48:41.103Z,14.93
2022-12-12T03:51:16.964Z,14.50
2022-12-12T03:53:47.855Z,13.88
2022-12-12T03:56:43.048Z,14.43
2022-12-12T03:59:43.874Z,14.25
2022-12-12T04:02:31.449Z,14.10
2022-12-12T04:05:13.402Z,15.45
2022-12-12T04:08:03.291Z,14.43
2022-12-12T04:10:54.034Z,14.57
2022-12-12T04:13:31.757Z,14.35
2022-12-12T04:16:09.023Z,14.05
2022-12-12T04:18:53.024Z,14.52
2022-12-12T04:21:56.787Z,14.63
2022-12-12T04:24:50.412Z,14.18
2022-12-12T04:27:23.838Z,14.65
2022-12-12T04:29:53.976Z,14.60
2022-12-12T04:32:24.660Z,14.75
2022-12-12T04:35:13.542Z,14.77
2022-12-12T04:37:41.043Z,15.07
2022-12-12T04:40:10.326Z,14.43
2022-12-12T04:42:41.498Z,14.75
2022-12-12T04:45:12.011Z,15.10
2022-12-12T04:47:39.599Z,15.10
2022-12-12T04:50:08.018Z,14.00
2022-12-12T04:52:35.344Z,14.13
2022-12-12T04:55:08.083Z,13.95
2022-12-12T04:57:54.103Z,14.88
2022-12-12T05:00:22.136Z,13.60
2022-12-12T05:02:58.483Z,14.45
2022-12-12T05:05:28.502Z,15.18
2022-12-12T05:08:21.628Z,13.57
2022-12-12T05:10:51.802Z,13.98
2022-12-12T05:13:28.959Z,14.48
2022-12-12T05:15:56.533Z,13.85
2022-12-12T05:18:23.859Z,14.27
2022-12-12T05:20:51.253Z,14.80
2022-12-12T05:23:18.672Z,14.20
2022-12-12T05:25:46.065Z,14.23
2022-12-12T05:28:13.396Z,13.38
2022-12-12T05:30:40.719Z,14.63
2022-12-12T05:33:08.067Z,14.63
2022-12-12T05:35:35.393Z,14.52
2022-12-12T05:38:02.770Z,14.80
2022-12-12T05:40:30.139Z,14.70
2022-12-12T05:42:57.469Z,14.15
2022-12-12T05:45:24.783Z,14.75
2022-12-12T05:47:52.107Z,14.25
2022-12-12T05:50:19.361Z,13.65
2022-12-12T05:52:46.899Z,14.55
2022-12-12T05:55:14.561Z,13.98
2022-12-12T05:57:42.100Z,14.13
2022-12-12T06:00:10.036Z,13.85
2022-12-12T06:02:37.485Z,14.32
2022-12-12T06:05:05.433Z,13.68
2022-12-12T06:07:32.718Z,15.10
2022-12-12T06:10:00.031Z,14.63
2022-12-12T06:12:27.362Z,13.88
2022-12-12T06:14:54.704Z,14.25
2022-12-12T06:17:22.038Z,14.23
2022-12-12T06:19:50.755Z,14.23
2022-12-12T06:22:18.216Z,14.20
2022-12-12T06:24:45.532Z,14.68
2022-12-12T06:27:12.860Z,13.85
2022-12-12T06:29:40.258Z,14.18
2022-12-12T06:32:07.610Z,14.73
2022-12-12T06:34:35.231Z,13.57
2022-12-12T06:37:03.304Z,14.25
2022-12-12T06:39:30.652Z,14.68
2022-12-12T06:41:57.983Z,14.00
2022-12-12T06:44:25.281Z,14.02
2022-12-12T06:46:52.640Z,14.18
2022-12-12T06:49:19.946Z,14.27
2022-12-12T06:51:48.796Z,14.82
2022-12-12T06:54:17.037Z,14.85
2022-12-12T06:56:48.250Z,14.02
2022-12-12T06:59:16.583Z,15.10
2022-12-12T07:01:44.490Z,14.77
2022-12-12T07:04:12.475Z,15.60
2022-12-12T07:06:39.877Z,15.07
2022-12-12T07:09:08.020Z,14.88
2022-12-12T07:11:35.329Z,15.80
2022-12-12T07:14:05.573Z,14.25
2022-12-12T07:16:33.046Z,15.52
2022-12-12T07:19:00.411Z,14.73
2022-12-12T07:21:27.769Z,14.05
2022-12-12T07:23:56.942Z,14.57
2022-12-12T07:26:24.583Z,14.90
2022-12-12T07:28:52.058Z,28.45
2022-12-12T07:31:21.321Z,14.25
2022-12-12T07:33:48.870Z,15.02
2022-12-12T07:36:16.526Z,14.65
2022-12-12T07:38:44.139Z,14.40
2022-12-12T07:41:13.463Z,14.68
2022-12-12T07:43:44.187Z,14.73
2022-12-12T07:46:17.529Z,14.45
2022-12-12T07:48:44.962Z,13.95
2022-12-12T07:51:12.675Z,14.43
2022-12-12T07:53:40.388Z,14.13
2022-12-12T07:56:10.105Z,13.68
2022-12-12T07:58:37.484Z,13.75
2022-12-12T08:01:15.401Z,13.55
2022-12-12T08:03:44.302Z,12.88
2022-12-12T08:06:12.021Z,12.52
2022-12-12T08:08:39.325Z,12.90
2022-12-12T08:11:11.540Z,13.00
2022-12-12T08:13:39.303Z,12.63
2022-12-12T08:16:07.763Z,13.45
2022-12-12T08:18:35.091Z,12.77
2022-12-12T08:21:02.480Z,13.82
2022-12-12T08:23:29.806Z,12.23
2022-12-12T08:25:57.131Z,11.98
2022-12-12T08:28:24.470Z,10.80
2022-12-12T08:30:51.938Z,11.88
2022-12-12T08:33:19.391Z,11.07
2022-12-12T08:35:46.850Z,11.95
2022-12-12T08:38:15.597Z,12.18
2022-12-12T08:40:42.974Z,11.18
2022-12-12T08:43:10.394Z,12.48
2022-12-12T08:45:38.600Z,11.38
2022-12-12T08:48:06.799Z,12.02
2022-12-12T08:50:34.448Z,11.60
2022-12-12T08:53:01.769Z,12.55
2022-12-12T08:55:29.146Z,11.73
2022-12-12T08:57:56.453Z,11.32
2022-12-12T09:00:23.885Z,12.25
2022-12-12T09:02:51.410Z,11.70
2022-12-12T09:05:19.007Z,11.75
2022-12-12T09:07:46.374Z,11.68
2022-12-12T09:10:13.750Z,10.73
2022-12-12T09:12:42.135Z,11.15
2022-12-12T09:15:10.113Z,10.98
2022-12-12T09:17:37.526Z,10.88
2022-12-12T09:20:05.247Z,11.02
2022-12-12T09:22:32.635Z,11.13
2022-12-12T09:25:00.336Z,11.35
2022-12-12T09:27:27.637Z,11.02
2022-12-12T09:29:55.012Z,10.35
2022-12-12T09:32:24.714Z,10.65
2022-12-12T09:34:52.274Z,10.85
2022-12-12T09:37:19.644Z,10.27
2022-12-12T09:39:47.013Z,10.43
2022-12-12T09:42:27.965Z,10.23
2022-12-12T09:45:03.777Z,10.35
2022-12-12T09:47:42.600Z,10.05
2022-12-12T09:50:25.378Z,9.20
2022-12-12T09:52:53.913Z,9.20
2022-12-12T09:55:25.506Z,9.52
2022-12-12T09:58:01.328Z,9.40
2022-12-12T10:00:28.651Z,10.05
2022-12-12T10:03:05.453Z,9.00
2022-12-12T10:06:28.515Z,9.30
2022-12-12T10:08:54.853Z,9.00
2022-12-12T10:11:46.277Z,7.85
2022-12-12T10:14:13.562Z,8.13
2022-12-12T10:16:40.893Z,8.52
2022-12-12T10:19:22.221Z,8.52
2022-12-12T10:21:49.873Z,8.77
2022-12-12T10:24:41.605Z,8.70
2022-12-12T10:27:10.525Z,8.90
2022-12-12T10:29:41.382Z,9.55
2022-12-12T10:32:17.982Z,8.80
2022-12-12T10:34:59.564Z,8.65
2022-12-12T10:37:49.878Z,8.05
2022-12-12T10:40:26.449Z,7.25
2022-12-12T10:42:56.544Z,8.05
2022-12-12T10:45:42.995Z,6.72
2022-12-12T10:48:10.723Z,7.72
2022-12-12T10:50:41.394Z,8.18
2022-12-12T10:53:11.002Z,7.43
2022-12-12T10:55:49.926Z,7.88
2022-12-12T10:58:17.294Z,7.35
2022-12-12T11:00:45.911Z,7.63
2022-12-12T11:03:21.397Z,7.18
2022-12-12T11:05:49.354Z,7.20
2022-12-12T11:08:32.931Z,7.63
2022-12-12T11:11:07.973Z,7.82
2022-12-12T11:13:52.036Z,6.93
2022-12-12T11:16:25.157Z,7.20
2022-12-12T11:19:25.742Z,7.57
2022-12-12T11:21:54.494Z,6.93
2022-12-12T11:24:24.154Z,7.20
2022-12-12T11:27:02.632Z,6.90
2022-12-12T11:29:35.964Z,6.90
2022-12-12T11:32:03.521Z,6.07
2022-12-12T11:34:33.495Z,5.97
2022-12-12T11:37:01.469Z,6.80
2022-12-12T11:39:32.926Z,6.82
2022-12-12T11:42:13.560Z,6.43
2022-12-12T11:44:41.609Z,6.55
2022-12-12T11:47:28.713Z,7.00
2022-12-12T11:49:59.019Z,6.53
2022-12-12T11:52:30.907Z,7.40
2022-12-12T11:54:58.685Z,5.45
2022-12-12T11:58:03.813Z,5.00
2022-12-12T12:00:46.087Z,6.85
2022-12-12T12:03:27.710Z,4.75
2022-12-12T12:06:14.322Z,4.75
2022-12-12T12:08:56.563Z,4.97
2022-12-12T12:11:48.998Z,4.70
2022-12-12T12:14:22.063Z,4.40
2022-12-12T12:17:05.297Z,5.32
2022-12-12T12:20:07.803Z,5.25
2022-12-12T12:22:56.625Z,4.10
2022-12-12T12:25:27.188Z,4.40
2022-12-12T12:28:26.287Z,4.95
2022-12-12T12:31:04.244Z,5.07
2022-12-12T12:34:00.792Z,6.00
2022-12-12T12:36:58.930Z,5.85
2022-12-12T12:39:55.735Z,5.20
2022-12-12T12:42:44.831Z,5.40
2022-12-12T12:45:36.997Z,5.00
2022-12-12T12:48:25.870Z,5.45
2022-12-12T12:51:05.138Z,5.05
2022-12-12T12:53:50.110Z,5.20
2022-12-12T12:56:26.477Z,5.80
2022-12-12T12:58:58.792Z,5.00
2022-12-12T13:01:40.741Z,5.20
2022-12-12T13:04:17.607Z,6.35
2022-12-12T13:06:51.610Z,5.72
2022-12-12T13:09:45.150Z,5.95
2022-12-12T13:12:47.483Z,5.68
2022-12-12T13:15:41.888Z,5.90
2022-12-12T13:18:15.875Z,6.78
2022-12-12T13:20:46.042Z,5.85
2022-12-12T13:23:19.299Z,5.68
2022-12-12T13:26:00.894Z,5.70
2022-12-12T13:28:41.610Z,5.90
2022-12-12T13:31:31.001Z,6.32
2022-12-12T13:34:15.493Z,6.22
2022-12-12T13:36:45.479Z,7.60
2022-12-12T13:39:34.542Z,7.57
2022-12-12T13:42:09.063Z,8.90
2022-12-12T13:44:39.196Z,8.23
2022-12-12T13:47:29.944Z,8.57
2022-12-12T13:50:23.204Z,8.27
2022-12-12T13:53:08.964Z,8.55
2022-12-12T13:55:36.819Z,8.27
2022-12-12T13:58:17.069Z,8.10
2022-12-12T14:00:44.460Z,8.48
2022-12-12T14:03:11.957Z,8.55
2022-12-12T14:05:41.176Z,10.63
2022-12-12T14:08:19.428Z,9.05
2022-12-12T14:10:49.761Z,7.80
2022-12-12T14:13:23.107Z,8.35
2022-12-12T14:15:56.882Z,8.60
2022-12-12T14:18:31.740Z,8.55
2022-12-12T14:21:02.308Z,8.18
2022-12-12T14:23:32.070Z,7.30
2022-12-12T14:26:03.104Z,8.15
2022-12-12T14:28:31.357Z,8.70
2022-12-12T14:31:10.985Z,9.80
2022-12-12T14:34:02.200Z,10.48
2022-12-12T14:36:39.781Z,10.18
2022-12-12T14:39:20.020Z,11.25
2022-12-12T14:41:47.466Z,10.75
2022-12-12T14:44:36.616Z,10.20
2022-12-12T14:47:09.378Z,10.82
2022-12-12T14:49:36.733Z,11.27
2022-12-12T14:52:04.099Z,10.25
2022-12-12T14:54:31.982Z,10.00
2022-12-12T14:56:59.408Z,10.27
2022-12-12T14:59:34.030Z,9.93
2022-12-12T15:02:18.245Z,10.95
2022-12-12T15:04:51.002Z,10.90
2022-12-12T15:07:28.615Z,11.25
2022-12-12T15:09:56.091Z,11.43
2022-12-12T15:12:32.101Z,11.43
2022-12-12T15:14:59.662Z,12.07
2022-12-12T15:17:50.127Z,12.88
2022-12-12T15:20:21.767Z,12.45
2022-12-12T15:22:52.830Z,12.18
2022-12-12T15:25:21.762Z,11.80
2022-12-12T15:27:55.561Z,12.30
2022-12-12T15:30:26.824Z,12.43
2022-12-12T15:32:54.173Z,11.90
2022-12-12T15:35:22.299Z,11.38
2022-12-12T15:38:00.301Z,11.52
2022-12-12T15:40:29.718Z,11.25
2022-12-12T15:42:59.403Z,11.00
2022-12-12T15:45:56.322Z,13.15
2022-12-12T15:48:23.972Z,13.48
2022-12-12T15:50:58.951Z,11.70
2022-12-12T15:53:30.160Z,12.45
2022-12-12T15:56:06.726Z,12.02
2022-12-12T15:58:47.412Z,12.35
2022-12-12T16:01:20.008Z,14.13
2022-12-12T16:03:58.656Z,13.00
2022-12-12T16:06:37.055Z,13.35
2022-12-12T16:09:07.595Z,12.80
2022-12-12T16:11:37.751Z,13.07
2022-12-12T16:14:32.584Z,13.57
2022-12-12T16:17:23.548Z,13.32
2022-12-12T16:20:05.906Z,12.63
2022-12-12T16:22:36.146Z,12.50
2022-12-12T16:25:18.315Z,13.07
2022-12-12T16:27:46.296Z,12.63
2022-12-12T16:30:14.541Z,12.07
2022-12-12T16:32:42.295Z,13.25
2022-12-12T16:35:14.795Z,14.13
2022-12-12T16:37:42.463Z,15.45
2022-12-12T16:40:14.490Z,13.20
2022-12-12T16:42:43.368Z,12.75
2022-12-12T16:45:11.664Z,12.43
2022-12-12T16:47:39.048Z,12.52
2022-12-12T16:50:06.687Z,12.45
2022-12-12T16:52:34.614Z,13.35
2022-12-12T16:55:01.905Z,11.85
2022-12-12T16:57:29.283Z,12.48
2022-12-12T16:59:56.641Z,14.20
2022-12-12T17:02:24.268Z,12.55
2022-12-12T17:04:51.847Z,12.88
2022-12-12T17:07:19.246Z,14.65
2022-12-12T17:09:46.643Z,13.13
2022-12-12T17:12:15.590Z,13.00
2022-12-12T17:14:43.176Z,13.02
2022-12-12T17:17:10.512Z,14.00
2022-12-12T17:19:37.962Z,13.38
2022-12-12T17:22:05.339Z,13.23
2022-12-12T17:24:32.798Z,14.95
2022-12-12T17:27:00.156Z,12.93
2022-12-12T17:29:27.529Z,13.68
2022-12-12T17:31:54.926Z,12.68
2022-12-12T17:34:22.317Z,12.80
2022-12-12T17:36:49.819Z,13.50
2022-12-12T17:39:17.183Z,14.13
2022-12-12T17:41:44.565Z,15.05
2022-12-12T17:44:12.165Z,13.23
2022-12-12T17:46:41.483Z,12.82
2022-12-12T17:49:08.965Z,12.77
2022-12-12T17:51:37.508Z,13.55
2022-12-12T17:54:04.937Z,12.60
2022-12-12T17:56:32.414Z,13.55
2022-12-12T17:58:59.856Z,12.32
2022-12-12T18:01:28.536Z,12.88
2022-12-12T18:03:56.114Z,12.45
2022-12-12T18:06:23.784Z,12.93
2022-12-12T18:08:52.567Z,12.73
2022-12-12T18:11:24.487Z,13.27
2022-12-12T18:13:53.869Z,12.45
2022-12-12T18:16:23.629Z,13.13
2022-12-12T18:18:51.757Z,12.52
2022-12-12T18:21:51.807Z,12.18
2022-12-12T18:24:11.254Z,12.88
2022-12-12T18:26:38.631Z,12.80
2022-12-12T18:29:06.673Z,12.68
2022-12-12T18:31:34.376Z,12.25
2022-12-12T18:34:01.917Z,12.63
2022-12-12T18:36:30.053Z,11.65
2022-12-12T18:38:58.731Z,11.52
2022-12-12T18:41:27.421Z,11.90
2022-12-12T18:43:55.270Z,14.20
2022-12-12T18:46:24.656Z,14.18
2022-12-12T18:48:52.158Z,14.98
2022-12-12T18:51:23.730Z,15.27
2022-12-12T18:53:52.359Z,14.55
2022-12-12T18:56:22.197Z,13.95
2022-12-12T18:58:49.757Z,14.55
2022-12-12T19:01:22.804Z,13.07
2022-12-12T19:03:52.202Z,13.67
2022-12-12T19:06:21.268Z,14.30
2022-12-12T19:08:48.795Z,14.30
2022-12-12T19:11:16.590Z,14.95
2022-12-12T19:13:44.887Z,15.43
2022-12-12T19:16:16.870Z,14.10
2022-12-12T19:18:44.481Z,14.25
2022-12-12T19:21:23.689Z,13.45
2022-12-12T19:23:51.444Z,13.23
2022-12-12T19:26:29.476Z,13.25
2022-12-12T19:29:07.409Z,13.50
2022-12-12T19:31:35.982Z,14.45
2022-12-12T19:34:04.373Z,13.10
2022-12-12T19:36:31.749Z,13.32
2022-12-12T19:39:00.484Z,14.00
2022-12-12T19:41:28.092Z,13.25
2022-12-12T19:43:56.806Z,12.85
2022-12-12T19:46:25.647Z,13.88
2022-12-12T19:49:00.642Z,15.02
2022-12-12T19:51:28.789Z,13.77
2022-12-12T19:53:57.404Z,13.75
2022-12-12T19:56:29.723Z,14.30
2022-12-12T19:58:57.576Z,15.05
2022-12-12T20:01:29.701Z,14.20
2022-12-12T20:04:05.617Z,13.73
2022-12-12T20:06:40.941Z,13.20
2022-12-12T20:09:09.345Z,14.15
2022-12-12T20:11:36.898Z,13.82
2022-12-12T20:14:04.357Z,13.18
2022-12-12T20:16:31.763Z,13.93
2022-12-12T20:18:59.359Z,13.93
2022-12-12T20:21:59.712Z,13.40
2022-12-12T20:24:20.122Z,13.20
2022-12-12T20:26:47.993Z,13.73
2022-12-12T20:29:15.457Z,12.70
2022-12-12T20:31:45.426Z,13.02
2022-12-12T20:34:13.664Z,13.40
2022-12-12T20:36:41.493Z,14.68
2022-12-12T20:39:10.891Z,15.23
2022-12-12T20:41:38.971Z,14.75
2022-12-12T20:44:07.309Z,13.45
2022-12-12T20:46:36.297Z,15.02
2022-12-12T20:49:05.356Z,13.40
2022-12-12T20:54:22.204Z,13.07
2022-12-12T20:56:49.806Z,13.68
2022-12-12T20:59:17.355Z,14.07
2022-12-12T21:01:44.835Z,14.85
2022-12-12T21:04:12.361Z,13.38
2022-12-12T21:06:41.028Z,13.65
2022-12-12T21:09:09.979Z,13.35
2022-12-12T21:11:38.266Z,13.68
2022-12-12T21:14:06.523Z,12.88
2022-12-12T21:16:35.833Z,11.90
2022-12-12T21:19:05.498Z,12.20
2022-12-12T21:21:32.982Z,11.80
2022-12-12T21:24:00.532Z,12.38
2022-12-12T21:26:29.395Z,12.10
2022-12-12T21:28:57.533Z,12.68
2022-12-12T21:31:30.062Z,13.10
2022-12-12T21:33:57.688Z,12.50
2022-12-12T21:36:25.614Z,12.85
2022-12-12T21:38:53.166Z,12.90
2022-12-12T21:41:21.235Z,12.40
2022-12-12T21:43:48.638Z,13.30
2022-12-12T21:46:20.853Z,12.38
2022-12-12T21:49:08.553Z,12.60
2022-12-12T21:51:35.992Z,12.93
2022-12-12T21:54:04.203Z,11.57
2022-12-12T21:56:31.953Z,12.25
2022-12-12T21:58:59.317Z,12.45
2022-12-12T22:01:26.876Z,12.63
2022-12-12T22:03:54.887Z,12.18
2022-12-12T22:06:24.401Z,11.98
2022-12-12T22:08:51.897Z,12.38
2022-12-12T22:11:30.979Z,11.15
2022-12-12T22:14:06.825Z,11.68
2022-12-12T22:16:34.224Z,10.98
2022-12-12T22:19:05.746Z,12.70
2022-12-12T22:21:33.914Z,11.90
2022-12-12T22:24:01.506Z,11.45
2022-12-12T22:26:36.843Z,11.82
2022-12-12T22:29:06.039Z,11.75
2022-12-12T22:31:35.293Z,11.25
2022-12-12T22:34:05.101Z,10.55
2022-12-12T22:36:33.923Z,10.73
2022-12-12T22:39:01.480Z,10.80
2022-12-12T22:41:29.031Z,10.60
2022-12-12T22:43:57.904Z,11.00
2022-12-12T22:46:26.323Z,11.18
2022-12-12T22:48:54.822Z,12.18
2022-12-12T22:51:25.158Z,11.38
2022-12-12T22:53:52.516Z,11.43
2022-12-12T22:56:19.859Z,11.25
2022-12-12T22:58:47.163Z,11.00
2022-12-12T23:01:18.806Z,10.88
2022-12-12T23:03:46.345Z,10.65
2022-12-12T23:06:18.503Z,11.32
2022-12-12T23:08:53.258Z,10.90
2022-12-12T23:11:21.103Z,11.15
2022-12-12T23:13:48.516Z,11.60
2022-12-12T23:16:17.738Z,11.45
2022-12-12T23:18:45.546Z,11.07
2022-12-12T23:21:17.030Z,11.90
2022-12-12T23:23:45.409Z,11.90
2022-12-12T23:26:15.148Z,11.20
2022-12-12T23:28:42.639Z,11.60
2022-12-12T23:31:14.765Z,11.10
2022-12-12T23:33:42.317Z,11.75
2022-12-12T23:36:10.449Z,10.50
2022-12-12T23:38:37.882Z,11.00
2022-12-12T23:41:09.781Z,10.80
2022-12-12T23:43:37.265Z,11.93
2022-12-12T23:46:05.768Z,10.32
2022-12-12T23:48:33.369Z,11.48
2022-12-12T23:51:00.831Z,10.90
2022-12-12T23:53:31.323Z,10.93
2022-12-12T23:56:02.606Z,11.20
2022-12-12T23:58:29.921Z,11.18
